createdAt,value
2023-05-01T00:00:38.217Z,6.70
2023-05-01T00:01:38.215Z,6.67
2023-05-01T00:02:38.279Z,6.72
2023-05-01T00:03:38.288Z,6.63
2023-05-01T00:04:38.216Z,6.46
2023-05-01T00:05:38.173Z,6.66
2023-05-01T00:06:38.251Z,6.51
2023-05-01T00:07:38.144Z,6.38
2023-05-01T00:08:38.132Z,6.51
2023-05-01T00:09:38.141Z,6.70
2023-05-01T00:10:38.143Z,6.70
2023-05-01T00:11:38.121Z,6.63
2023-05-01T00:12:38.107Z,6.59
2023-05-01T00:13:38.103Z,6.60
2023-05-01T00:14:38.101Z,6.57
2023-05-01T00:15:38.092Z,6.51
2023-05-01T00:16:38.145Z,6.60
2023-05-01T00:17:38.111Z,6.57
2023-05-01T00:18:38.076Z,6.81
2023-05-01T00:19:38.057Z,6.84
2023-05-01T00:20:38.056Z,6.88
2023-05-01T00:21:38.052Z,6.93
2023-05-01T00:22:38.036Z,6.84
2023-05-01T00:23:38.058Z,6.74
2023-05-01T00:24:38.034Z,6.72
2023-05-01T00:25:38.024Z,6.66
2023-05-01T00:26:38.001Z,6.57
2023-05-01T00:27:38.003Z,6.63
2023-05-01T00:28:38.041Z,6.38
2023-05-01T00:29:37.999Z,6.30
2023-05-01T00:30:38.010Z,6.11
2023-05-01T00:31:38.008Z,6.12
2023-05-01T00:32:37.974Z,6.16
2023-05-01T00:33:37.962Z,6.26
2023-05-01T00:34:37.970Z,6.31
2023-05-01T00:35:38.062Z,6.26
2023-05-01T00:36:37.946Z,6.20
2023-05-01T00:37:37.942Z,6.05
2023-05-01T00:38:37.928Z,6.20
2023-05-01T00:39:37.936Z,6.11
2023-05-01T00:40:37.945Z,6.14
2023-05-01T00:41:37.995Z,6.04
2023-05-01T00:42:37.902Z,6.05
2023-05-01T00:43:37.892Z,6.02
2023-05-01T00:44:37.910Z,5.94
2023-05-01T00:45:37.972Z,6.09
2023-05-01T00:46:37.906Z,6.05
2023-05-01T00:47:37.941Z,5.97
2023-05-01T00:48:37.868Z,5.99
2023-05-01T00:49:37.851Z,6.01
2023-05-01T00:50:37.855Z,6.11
2023-05-01T00:51:38.096Z,6.16
2023-05-01T00:52:37.839Z,6.20
2023-05-01T00:53:37.818Z,6.31
2023-05-01T00:54:37.828Z,6.44
2023-05-01T00:55:37.813Z,6.41
2023-05-01T00:56:37.835Z,6.46
2023-05-01T00:57:37.780Z,6.52
2023-05-01T00:58:37.829Z,6.48
2023-05-01T00:59:37.789Z,6.48
2023-05-01T01:00:37.776Z,6.33
2023-05-01T01:01:37.932Z,6.33
2023-05-01T01:02:37.803Z,6.28
2023-05-01T01:03:37.758Z,6.31
2023-05-01T01:04:37.812Z,6.54
2023-05-01T01:05:37.743Z,6.59
2023-05-01T01:06:37.825Z,6.74
2023-05-01T01:07:37.728Z,6.64
2023-05-01T01:08:37.724Z,6.52
2023-05-01T01:09:37.744Z,6.56
2023-05-01T01:10:37.712Z,6.51
2023-05-01T01:11:37.716Z,6.56
2023-05-01T01:12:37.695Z,6.59
2023-05-01T01:13:37.686Z,6.63
2023-05-01T01:14:37.677Z,6.56
2023-05-01T01:15:37.684Z,6.60
2023-05-01T01:16:37.817Z,6.45
2023-05-01T01:17:37.713Z,6.49
2023-05-01T01:18:37.648Z,6.36
2023-05-01T01:19:37.659Z,6.36
2023-05-01T01:20:37.634Z,6.42
2023-05-01T01:21:37.656Z,6.46
2023-05-01T01:22:37.619Z,6.59
2023-05-01T01:23:37.604Z,6.38
2023-05-01T01:24:37.612Z,6.38
2023-05-01T01:25:37.648Z,6.27
2023-05-01T01:26:37.610Z,6.35
2023-05-01T01:27:37.583Z,6.44
2023-05-01T01:28:37.580Z,6.57
2023-05-01T01:29:37.583Z,6.59
2023-05-01T01:30:37.605Z,6.72
2023-05-01T01:31:37.680Z,6.78
2023-05-01T01:32:37.562Z,6.70
2023-05-01T01:33:37.556Z,6.75
2023-05-01T01:34:37.523Z,6.77
2023-05-01T01:35:37.529Z,6.81
2023-05-01T01:36:37.541Z,6.88
2023-05-01T01:37:37.520Z,6.89
2023-05-01T01:38:37.522Z,6.92
2023-05-01T01:39:37.491Z,6.89
2023-05-01T01:40:37.488Z,6.99
2023-05-01T01:41:37.530Z,6.93
2023-05-01T01:42:37.474Z,7.03
2023-05-01T01:43:37.476Z,6.96
2023-05-01T01:44:37.481Z,6.89
2023-05-01T01:45:37.475Z,6.82
2023-05-01T01:46:37.953Z,6.88
2023-05-01T01:47:37.525Z,6.85
2023-05-01T01:48:37.439Z,6.89
2023-05-01T01:49:37.427Z,6.81
2023-05-01T01:50:37.425Z,6.81
2023-05-01T01:51:37.445Z,6.75
2023-05-01T01:52:37.423Z,6.78
2023-05-01T01:53:37.398Z,6.67
2023-05-01T01:54:37.451Z,6.64
2023-05-01T01:55:37.385Z,6.62
2023-05-01T01:56:37.394Z,6.70
2023-05-01T01:57:37.388Z,6.79
2023-05-01T01:58:37.381Z,6.74
2023-05-01T01:59:37.365Z,6.64
2023-05-01T02:00:37.358Z,6.39
2023-05-01T02:01:37.404Z,6.30
2023-05-01T02:02:37.386Z,6.36
2023-05-01T02:03:37.415Z,6.27
2023-05-01T02:04:37.335Z,6.20
2023-05-01T02:05:37.315Z,6.26
2023-05-01T02:06:37.424Z,6.24
2023-05-01T02:07:37.314Z,6.12
2023-05-01T02:08:37.299Z,6.16
2023-05-01T02:09:37.293Z,6.09
2023-05-01T02:10:37.292Z,6.09
2023-05-01T02:11:37.314Z,6.26
2023-05-01T02:12:37.269Z,6.12
2023-05-01T02:13:37.264Z,6.07
2023-05-01T02:14:37.265Z,6.11
2023-05-01T02:15:37.235Z,6.14
2023-05-01T02:16:37.440Z,6.02
2023-05-01T02:17:37.317Z,6.01
2023-05-01T02:18:37.220Z,5.97
2023-05-01T02:19:37.223Z,5.97
2023-05-01T02:20:37.218Z,5.79
2023-05-01T02:21:37.247Z,5.79
2023-05-01T02:22:37.239Z,5.69
2023-05-01T02:23:37.216Z,5.56
2023-05-01T02:24:37.218Z,5.64
2023-05-01T02:25:37.184Z,5.82
2023-05-01T02:26:37.216Z,5.80
2023-05-01T02:27:37.175Z,5.68
2023-05-01T02:28:37.166Z,5.53
2023-05-01T02:29:37.150Z,5.48
2023-05-01T02:30:37.163Z,5.54
2023-05-01T02:31:37.262Z,5.61
2023-05-01T02:32:37.171Z,5.57
2023-05-01T02:33:37.141Z,5.59
2023-05-01T02:34:37.126Z,5.72
2023-05-01T02:35:37.122Z,5.61
2023-05-01T02:36:37.140Z,5.66
2023-05-01T02:37:37.110Z,5.68
2023-05-01T02:38:37.101Z,5.57
2023-05-01T02:39:37.107Z,5.61
2023-05-01T02:40:37.134Z,5.48
2023-05-01T02:41:37.110Z,5.38
2023-05-01T02:42:37.082Z,5.48
2023-05-01T02:43:37.092Z,5.57
2023-05-01T02:44:37.069Z,5.50
2023-05-01T02:45:37.075Z,5.43
2023-05-01T02:46:37.104Z,5.39
2023-05-01T02:47:37.129Z,5.39
2023-05-01T02:48:37.036Z,5.44
2023-05-01T02:49:37.036Z,5.41
2023-05-01T02:50:37.015Z,5.47
2023-05-01T02:51:37.041Z,5.48
2023-05-01T02:52:37.000Z,5.57
2023-05-01T02:53:37.006Z,5.57
2023-05-01T02:54:36.989Z,5.48
2023-05-01T02:55:36.985Z,5.56
2023-05-01T02:56:37.004Z,5.62
2023-05-01T02:57:36.965Z,5.66
2023-05-01T02:58:36.965Z,5.80
2023-05-01T02:59:36.968Z,5.71
2023-05-01T03:00:36.955Z,5.56
2023-05-01T03:01:37.002Z,5.51
2023-05-01T03:02:37.013Z,5.32
2023-05-01T03:03:36.917Z,5.18
2023-05-01T03:04:37.011Z,5.17
2023-05-01T03:05:36.900Z,5.05
2023-05-01T03:06:37.001Z,4.93
2023-05-01T03:07:36.962Z,4.78
2023-05-01T03:08:36.889Z,4.82
2023-05-01T03:09:36.910Z,4.82
2023-05-01T03:10:37.878Z,4.74
2023-05-01T03:11:36.911Z,4.77
2023-05-01T03:12:36.866Z,4.77
2023-05-01T03:13:36.865Z,4.89
2023-05-01T03:14:36.874Z,5.05
2023-05-01T03:15:36.857Z,5.08
2023-05-01T03:16:36.916Z,5.11
2023-05-01T03:17:36.852Z,4.96
2023-05-01T03:18:36.842Z,4.92
2023-05-01T03:19:36.831Z,5.00
2023-05-01T03:20:36.829Z,4.97
2023-05-01T03:21:36.816Z,4.96
2023-05-01T03:22:36.862Z,4.99
2023-05-01T03:23:36.788Z,4.94
2023-05-01T03:24:36.780Z,5.05
2023-05-01T03:25:36.784Z,5.14
2023-05-01T03:26:36.802Z,5.10
2023-05-01T03:27:36.771Z,5.18
2023-05-01T03:28:36.772Z,5.12
2023-05-01T03:29:36.777Z,5.28
2023-05-01T03:30:36.745Z,5.30
2023-05-01T03:31:36.814Z,5.25
2023-05-01T03:32:36.726Z,5.28
2023-05-01T03:33:36.718Z,5.18
2023-05-01T03:34:36.704Z,5.15
2023-05-01T03:35:36.780Z,5.28
2023-05-01T03:36:36.735Z,5.32
2023-05-01T03:37:36.690Z,5.25
2023-05-01T03:38:36.686Z,5.25
2023-05-01T03:39:36.669Z,5.17
2023-05-01T03:40:36.681Z,5.25
2023-05-01T03:41:36.684Z,5.30
2023-05-01T03:42:36.649Z,5.39
2023-05-01T03:43:36.848Z,5.48
2023-05-01T03:44:36.641Z,5.50
2023-05-01T03:45:36.651Z,5.62
2023-05-01T03:46:36.789Z,5.69
2023-05-01T03:47:36.822Z,5.75
2023-05-01T03:48:36.741Z,5.79
2023-05-01T03:49:36.647Z,6.01
2023-05-01T03:50:36.676Z,5.99
2023-05-01T03:51:36.636Z,6.02
2023-05-01T03:52:36.664Z,6.02
2023-05-01T03:53:36.714Z,6.05
2023-05-01T03:54:36.655Z,6.11
2023-05-01T03:55:37.535Z,6.02
2023-05-01T03:56:36.628Z,6.05
2023-05-01T03:57:36.576Z,5.91
2023-05-01T03:58:36.574Z,5.97
2023-05-01T03:59:37.519Z,5.99
2023-05-01T04:00:36.648Z,6.16
2023-05-01T04:01:36.630Z,6.14
2023-05-01T04:02:36.717Z,6.12
2023-05-01T04:03:36.634Z,6.08
2023-05-01T04:04:36.608Z,6.17
2023-05-01T04:05:36.505Z,6.24
2023-05-01T04:06:36.493Z,6.38
2023-05-01T04:07:36.460Z,6.33
2023-05-01T04:08:36.482Z,6.28
2023-05-01T04:09:36.455Z,6.49
2023-05-01T04:10:36.441Z,6.48
2023-05-01T04:11:36.447Z,6.46
2023-05-01T04:12:36.429Z,6.44
2023-05-01T04:13:36.418Z,6.59
2023-05-01T04:14:36.416Z,6.57
2023-05-01T04:15:36.474Z,6.63
2023-05-01T04:16:36.585Z,6.66
2023-05-01T04:17:36.473Z,6.49
2023-05-01T04:18:36.400Z,6.28
2023-05-01T04:19:36.391Z,6.46
2023-05-01T04:20:36.383Z,6.39
2023-05-01T04:21:36.393Z,6.16
2023-05-01T04:22:36.350Z,6.01
2023-05-01T04:23:36.339Z,6.05
2023-05-01T04:24:37.346Z,6.11
2023-05-01T04:25:36.350Z,6.28
2023-05-01T04:26:36.375Z,6.30
2023-05-01T04:27:36.344Z,6.35
2023-05-01T04:28:36.313Z,6.39
2023-05-01T04:29:36.323Z,6.51
2023-05-01T04:30:36.364Z,6.60
2023-05-01T04:31:36.648Z,6.52
2023-05-01T04:32:36.294Z,6.74
2023-05-01T04:33:36.290Z,6.66
2023-05-01T04:34:36.270Z,6.69
2023-05-01T04:35:36.306Z,6.78
2023-05-01T04:36:36.269Z,6.81
2023-05-01T04:37:36.302Z,6.87
2023-05-01T04:38:36.250Z,7.03
2023-05-01T04:39:36.492Z,7.02
2023-05-01T04:40:36.239Z,6.95
2023-05-01T04:41:36.239Z,7.05
2023-05-01T04:42:36.212Z,7.18
2023-05-01T04:43:36.210Z,7.18
2023-05-01T04:44:36.202Z,7.21
2023-05-01T04:45:36.200Z,7.35
2023-05-01T04:46:36.264Z,7.15
2023-05-01T04:47:36.246Z,7.05
2023-05-01T04:48:36.177Z,6.93
2023-05-01T04:49:36.179Z,7.05
2023-05-01T04:50:36.172Z,7.06
2023-05-01T04:51:36.187Z,7.18
2023-05-01T04:52:36.141Z,7.25
2023-05-01T04:53:36.148Z,7.39
2023-05-01T04:54:36.129Z,7.42
2023-05-01T04:55:36.128Z,7.43
2023-05-01T04:56:36.136Z,7.51
2023-05-01T04:57:36.118Z,7.57
2023-05-01T04:58:36.109Z,7.66
2023-05-01T04:59:36.099Z,7.72
2023-05-01T05:00:36.085Z,7.79
2023-05-01T05:01:36.157Z,7.79
2023-05-01T05:02:36.181Z,7.77
2023-05-01T05:03:36.275Z,7.76
2023-05-01T05:04:36.076Z,7.75
2023-05-01T05:05:36.061Z,7.90
2023-05-01T05:06:36.108Z,7.93
2023-05-01T05:07:36.042Z,7.91
2023-05-01T05:08:36.042Z,8.06
2023-05-01T05:09:36.028Z,8.09
2023-05-01T05:10:36.022Z,8.23
2023-05-01T05:11:36.032Z,8.15
2023-05-01T05:12:36.024Z,8.24
2023-05-01T05:13:36.001Z,8.45
2023-05-01T05:14:35.990Z,8.45
2023-05-01T05:15:35.988Z,8.58
2023-05-01T05:16:36.059Z,8.63
2023-05-01T05:17:36.018Z,8.78
2023-05-01T05:18:36.970Z,8.84
2023-05-01T05:19:35.977Z,8.85
2023-05-01T05:20:35.972Z,8.87
2023-05-01T05:21:35.955Z,8.99
2023-05-01T05:22:35.951Z,9.13
2023-05-01T05:23:35.945Z,9.16
2023-05-01T05:24:35.938Z,9.19
2023-05-01T05:25:36.939Z,9.19
2023-05-01T05:26:35.924Z,9.14
2023-05-01T05:27:35.906Z,9.16
2023-05-01T05:28:35.915Z,9.26
2023-05-01T05:29:35.890Z,9.40
2023-05-01T05:30:35.887Z,9.43
2023-05-01T05:31:35.914Z,9.62
2023-05-01T05:32:35.947Z,9.64
2023-05-01T05:33:35.879Z,9.64
2023-05-01T05:34:35.874Z,9.66
2023-05-01T05:35:35.856Z,9.72
2023-05-01T05:36:35.872Z,9.61
2023-05-01T05:37:35.845Z,9.79
2023-05-01T05:38:35.831Z,9.83
2023-05-01T05:39:35.830Z,9.87
2023-05-01T05:40:35.810Z,9.97
2023-05-01T05:41:35.827Z,9.89
2023-05-01T05:42:35.803Z,9.95
2023-05-01T05:43:35.801Z,10.15
2023-05-01T05:44:35.817Z,10.23
2023-05-01T05:45:35.954Z,10.34
2023-05-01T05:46:35.810Z,10.37
2023-05-01T05:47:35.808Z,10.59
2023-05-01T05:48:35.753Z,10.68
2023-05-01T05:49:35.757Z,10.74
2023-05-01T05:50:35.746Z,10.78
2023-05-01T05:51:35.761Z,10.82
2023-05-01T05:52:35.805Z,10.92
2023-05-01T05:53:35.821Z,10.82
2023-05-01T05:54:35.736Z,10.97
2023-05-01T05:55:35.722Z,11.00
2023-05-01T05:56:35.732Z,10.94
2023-05-01T05:57:35.716Z,10.92
2023-05-01T05:58:35.703Z,11.08
2023-05-01T05:59:35.708Z,11.17
2023-05-01T06:00:35.690Z,11.26
2023-05-01T06:01:35.704Z,11.30
2023-05-01T06:02:35.803Z,11.44
2023-05-01T06:03:35.892Z,11.41
2023-05-01T06:04:35.680Z,11.32
2023-05-01T06:05:35.692Z,11.44
2023-05-01T06:06:35.741Z,11.25
2023-05-01T06:07:35.660Z,11.37
2023-05-01T06:08:35.649Z,11.35
2023-05-01T06:09:35.618Z,11.14
2023-05-01T06:10:36.615Z,11.40
2023-05-01T06:11:35.642Z,11.50
2023-05-01T06:12:37.565Z,11.47
2023-05-01T06:13:36.609Z,11.52
2023-05-01T06:14:35.600Z,11.47
2023-05-01T06:15:35.643Z,11.59
2023-05-01T06:16:35.711Z,11.72
2023-05-01T06:17:35.625Z,11.63
2023-05-01T06:18:35.566Z,11.62
2023-05-01T06:19:35.563Z,11.60
2023-05-01T06:20:35.588Z,11.65
2023-05-01T06:21:35.600Z,11.57
2023-05-01T06:22:35.541Z,11.60
2023-05-01T06:23:35.531Z,11.47
2023-05-01T06:24:35.526Z,11.62
2023-05-01T06:25:35.548Z,11.40
2023-05-01T06:26:35.550Z,11.37
2023-05-01T06:27:35.493Z,11.48
2023-05-01T06:28:35.494Z,11.22
2023-05-01T06:29:35.496Z,11.40
2023-05-01T06:30:35.483Z,11.48
2023-05-01T06:31:35.531Z,11.29
2023-05-01T06:32:35.506Z,11.23
2023-05-01T06:33:35.538Z,11.10
2023-05-01T06:34:35.461Z,11.19
2023-05-01T06:35:35.436Z,11.41
2023-05-01T06:36:35.457Z,11.43
2023-05-01T06:37:35.428Z,11.37
2023-05-01T06:38:35.417Z,11.47
2023-05-01T06:39:35.454Z,11.65
2023-05-01T06:40:35.403Z,11.57
2023-05-01T06:41:35.417Z,11.65
2023-05-01T06:42:35.405Z,11.73
2023-05-01T06:43:35.384Z,11.87
2023-05-01T06:44:35.374Z,12.07
2023-05-01T06:45:35.374Z,12.04
2023-05-01T06:46:35.421Z,12.20
2023-05-01T06:47:35.394Z,12.42
2023-05-01T06:48:35.363Z,12.55
2023-05-01T06:49:35.343Z,12.70
2023-05-01T06:50:35.334Z,12.80
2023-05-01T06:51:35.383Z,12.79
2023-05-01T06:52:35.322Z,12.70
2023-05-01T06:53:35.373Z,12.79
2023-05-01T06:54:35.317Z,12.83
2023-05-01T06:55:35.991Z,12.95
2023-05-01T06:56:36.321Z,12.87
2023-05-01T06:57:35.296Z,12.90
2023-05-01T06:58:35.282Z,12.85
2023-05-01T06:59:35.268Z,12.80
2023-05-01T07:00:35.297Z,12.65
2023-05-01T07:01:35.727Z,12.50
2023-05-01T07:02:36.372Z,12.46
2023-05-01T07:03:35.288Z,12.70
2023-05-01T07:04:35.249Z,12.65
2023-05-01T07:05:35.242Z,12.65
2023-05-01T07:06:35.281Z,12.82
2023-05-01T07:07:35.239Z,12.82
2023-05-01T07:08:35.211Z,12.93
2023-05-01T07:09:35.202Z,12.76
2023-05-01T07:10:35.196Z,12.61
2023-05-01T07:11:35.247Z,12.55
2023-05-01T07:12:35.205Z,12.32
2023-05-01T07:13:35.184Z,12.40
2023-05-01T07:14:35.182Z,12.58
2023-05-01T07:15:35.162Z,12.80
2023-05-01T07:16:35.224Z,12.82
2023-05-01T07:17:35.193Z,12.93
2023-05-01T07:18:35.159Z,13.09
2023-05-01T07:19:35.141Z,13.20
2023-05-01T07:20:35.145Z,13.38
2023-05-01T07:21:35.170Z,13.56
2023-05-01T07:22:35.107Z,13.77
2023-05-01T07:23:35.114Z,13.95
2023-05-01T07:24:35.106Z,13.99
2023-05-01T07:25:35.098Z,14.15
2023-05-01T07:26:35.124Z,14.20
2023-05-01T07:27:35.108Z,14.08
2023-05-01T07:28:35.071Z,14.22
2023-05-01T07:29:35.073Z,14.10
2023-05-01T07:30:35.484Z,14.11
2023-05-01T07:31:35.256Z,14.17
2023-05-01T07:32:35.140Z,14.20
2023-05-01T07:33:35.060Z,14.29
2023-05-01T07:34:35.046Z,14.45
2023-05-01T07:35:35.039Z,14.47
2023-05-01T07:36:35.041Z,14.48
2023-05-01T07:37:35.012Z,14.26
2023-05-01T07:38:35.221Z,14.44
2023-05-01T07:39:35.010Z,14.55
2023-05-01T07:40:34.992Z,14.43
2023-05-01T07:41:34.991Z,14.54
2023-05-01T07:42:35.016Z,14.50
2023-05-01T07:43:34.977Z,14.28
2023-05-01T07:44:34.960Z,14.05
2023-05-01T07:45:34.970Z,14.12
2023-05-01T07:46:35.081Z,14.10
2023-05-01T07:47:34.971Z,14.23
2023-05-01T07:48:35.628Z,14.05
2023-05-01T07:49:34.926Z,14.11
2023-05-01T07:50:34.929Z,14.29
2023-05-01T07:51:34.915Z,14.41
2023-05-01T07:52:34.918Z,14.72
2023-05-01T07:53:34.903Z,14.81
2023-05-01T07:54:34.879Z,14.72
2023-05-01T07:55:34.878Z,14.84
2023-05-01T07:56:34.871Z,14.82
2023-05-01T07:57:34.868Z,15.02
2023-05-01T07:58:35.861Z,15.22
2023-05-01T07:59:34.857Z,15.33
2023-05-01T08:00:34.845Z,15.52
2023-05-01T08:01:34.857Z,15.44
2023-05-01T08:02:35.003Z,15.43
2023-05-01T08:03:34.929Z,15.37
2023-05-01T08:04:34.848Z,15.02
2023-05-01T08:05:34.808Z,14.58
2023-05-01T08:06:34.884Z,14.69
2023-05-01T08:07:34.814Z,14.78
2023-05-01T08:08:34.809Z,14.89
2023-05-01T08:09:34.952Z,15.00
2023-05-01T08:10:34.788Z,15.21
2023-05-01T08:11:34.779Z,15.09
2023-05-01T08:12:34.811Z,15.36
2023-05-01T08:13:34.762Z,15.25
2023-05-01T08:14:34.771Z,15.33
2023-05-01T08:15:34.741Z,15.24
2023-05-01T08:16:34.798Z,15.35
2023-05-01T08:17:34.789Z,15.44
2023-05-01T08:18:34.729Z,15.54
2023-05-01T08:19:34.732Z,15.17
2023-05-01T08:20:34.714Z,15.28
2023-05-01T08:21:34.738Z,15.28
2023-05-01T08:22:34.700Z,15.29
2023-05-01T08:23:34.718Z,15.51
2023-05-01T08:24:34.686Z,15.52
2023-05-01T08:25:34.686Z,15.47
2023-05-01T08:26:34.688Z,15.54
2023-05-01T08:27:34.672Z,15.49
2023-05-01T08:28:34.656Z,15.55
2023-05-01T08:29:34.654Z,15.65
2023-05-01T08:30:34.650Z,15.84
2023-05-01T08:31:34.715Z,15.65
2023-05-01T08:32:34.655Z,15.58
2023-05-01T08:33:34.628Z,15.65
2023-05-01T08:34:34.618Z,15.77
2023-05-01T08:35:34.612Z,15.80
2023-05-01T08:36:34.624Z,16.02
2023-05-01T08:37:34.606Z,16.02
2023-05-01T08:38:34.599Z,15.90
2023-05-01T08:39:34.591Z,15.70
2023-05-01T08:40:34.578Z,15.70
2023-05-01T08:41:34.602Z,15.72
2023-05-01T08:42:34.562Z,15.79
2023-05-01T08:43:34.559Z,15.76
2023-05-01T08:44:34.561Z,15.67
2023-05-01T08:45:34.552Z,15.82
2023-05-01T08:46:34.589Z,16.00
2023-05-01T08:47:34.542Z,15.77
2023-05-01T08:48:34.516Z,15.11
2023-05-01T08:49:34.512Z,15.17
2023-05-01T08:50:34.502Z,15.42
2023-05-01T08:51:34.513Z,15.67
2023-05-01T08:52:34.487Z,15.86
2023-05-01T08:53:34.487Z,15.83
2023-05-01T08:54:34.473Z,16.12
2023-05-01T08:55:34.460Z,16.31
2023-05-01T08:56:34.487Z,16.60
2023-05-01T08:57:34.461Z,16.69
2023-05-01T08:58:34.443Z,16.60
2023-05-01T08:59:34.442Z,16.33
2023-05-01T09:00:34.462Z,16.23
2023-05-01T09:01:34.446Z,16.32
2023-05-01T09:02:34.443Z,16.33
2023-05-01T09:03:34.497Z,16.47
2023-05-01T09:04:34.393Z,16.42
2023-05-01T09:05:34.395Z,16.46
2023-05-01T09:06:34.436Z,16.57
2023-05-01T09:07:34.373Z,16.69
2023-05-01T09:08:34.367Z,16.81
2023-05-01T09:09:34.386Z,16.97
2023-05-01T09:10:34.372Z,16.89
2023-05-01T09:11:34.370Z,16.89
2023-05-01T09:12:34.338Z,16.56
2023-05-01T09:13:34.349Z,16.65
2023-05-01T09:14:34.324Z,16.35
2023-05-01T09:15:34.322Z,16.28
2023-05-01T09:16:34.356Z,16.21
2023-05-01T09:17:34.339Z,15.94
2023-05-01T09:18:34.296Z,16.01
2023-05-01T09:19:34.285Z,15.84
2023-05-01T09:20:34.273Z,15.72
2023-05-01T09:21:34.298Z,15.52
2023-05-01T09:22:34.291Z,15.47
2023-05-01T09:23:34.260Z,15.73
2023-05-01T09:24:34.269Z,15.94
2023-05-01T09:25:34.261Z,15.95
2023-05-01T09:26:34.258Z,16.02
2023-05-01T09:27:34.311Z,16.33
2023-05-01T09:28:34.243Z,16.56
2023-05-01T09:29:34.227Z,16.50
2023-05-01T09:30:34.245Z,16.46
2023-05-01T09:31:34.296Z,16.32
2023-05-01T09:32:34.218Z,16.69
2023-05-01T09:33:34.191Z,17.08
2023-05-01T09:34:34.181Z,17.31
2023-05-01T09:35:34.184Z,17.26
2023-05-01T09:36:34.185Z,17.56
2023-05-01T09:37:34.189Z,17.76
2023-05-01T09:38:34.166Z,17.78
2023-05-01T09:39:34.141Z,17.68
2023-05-01T09:40:34.148Z,17.22
2023-05-01T09:41:34.125Z,16.94
2023-05-01T09:42:35.144Z,17.01
2023-05-01T09:43:35.134Z,17.14
2023-05-01T09:44:34.099Z,17.39
2023-05-01T09:45:34.121Z,17.72
2023-05-01T09:46:34.159Z,17.98
2023-05-01T09:47:34.179Z,18.15
2023-05-01T09:48:35.277Z,18.34
2023-05-01T09:49:35.062Z,18.55
2023-05-01T09:50:34.092Z,18.47
2023-05-01T09:51:34.052Z,18.59
2023-05-01T09:52:34.065Z,17.97
2023-05-01T09:53:34.045Z,17.94
2023-05-01T09:54:34.031Z,18.01
2023-05-01T09:55:34.034Z,18.05
2023-05-01T09:56:34.276Z,18.26
2023-05-01T09:57:34.017Z,18.58
2023-05-01T09:58:34.022Z,18.71
2023-05-01T09:59:33.991Z,18.74
2023-05-01T10:00:34.005Z,19.14
2023-05-01T10:01:34.019Z,19.41
2023-05-01T10:02:34.076Z,19.59
2023-05-01T10:03:34.072Z,19.54
2023-05-01T10:04:33.977Z,20.02
2023-05-01T10:05:33.964Z,19.59
2023-05-01T10:06:34.024Z,17.72
2023-05-01T10:07:33.958Z,17.39
2023-05-01T10:08:33.943Z,17.30
2023-05-01T10:09:33.975Z,17.44
2023-05-01T10:10:33.940Z,17.63
2023-05-01T10:11:33.950Z,18.29
2023-05-01T10:12:33.906Z,18.22
2023-05-01T10:13:33.903Z,18.70
2023-05-01T10:14:33.899Z,19.24
2023-05-01T10:15:33.886Z,18.68
2023-05-01T10:16:33.902Z,17.94
2023-05-01T10:17:33.919Z,18.16
2023-05-01T10:18:33.870Z,18.75
2023-05-01T10:19:33.869Z,19.22
2023-05-01T10:20:33.905Z,19.82
2023-05-01T10:21:33.884Z,20.06
2023-05-01T10:22:33.842Z,20.47
2023-05-01T10:23:33.833Z,20.44
2023-05-01T10:24:33.818Z,20.62
2023-05-01T10:25:33.835Z,20.44
2023-05-01T10:26:33.809Z,20.36
2023-05-01T10:27:33.826Z,20.11
2023-05-01T10:28:33.816Z,19.47
2023-05-01T10:29:33.788Z,19.49
2023-05-01T10:30:33.776Z,20.22
2023-05-01T10:31:33.855Z,21.07
2023-05-01T10:32:33.776Z,22.04
2023-05-01T10:33:33.757Z,22.66
2023-05-01T10:34:33.765Z,22.50
2023-05-01T10:35:34.760Z,20.67
2023-05-01T10:36:33.750Z,19.47
2023-05-01T10:37:33.777Z,19.52
2023-05-01T10:38:33.752Z,20.25
2023-05-01T10:39:33.794Z,21.05
2023-05-01T10:40:33.752Z,21.79
2023-05-01T10:41:33.710Z,21.92
2023-05-01T10:42:33.715Z,22.80
2023-05-01T10:43:33.700Z,22.02
2023-05-01T10:44:33.682Z,21.29
2023-05-01T10:45:34.009Z,20.93
2023-05-01T10:46:33.682Z,19.76
2023-05-01T10:47:33.698Z,19.76
2023-05-01T10:48:33.653Z,20.04
2023-05-01T10:49:33.653Z,20.02
2023-05-01T10:50:33.655Z,21.05
2023-05-01T10:51:33.639Z,20.96
2023-05-01T10:52:33.662Z,20.63
2023-05-01T10:53:33.632Z,20.75
2023-05-01T10:54:33.622Z,21.24
2023-05-01T10:55:33.614Z,21.36
2023-05-01T10:56:33.622Z,21.22
2023-05-01T10:57:33.614Z,21.22
2023-05-01T10:58:33.585Z,21.30
2023-05-01T10:59:33.596Z,21.76
2023-05-01T11:00:33.563Z,22.10
2023-05-01T11:01:33.667Z,22.47
2023-05-01T11:02:33.622Z,22.11
2023-05-01T11:03:33.561Z,21.93
2023-05-01T11:04:33.549Z,22.10
2023-05-01T11:05:38.604Z,21.69
2023-05-01T11:06:35.586Z,21.62
2023-05-01T11:07:33.550Z,21.70
2023-05-01T11:08:33.539Z,22.11
2023-05-01T11:09:33.516Z,22.29
2023-05-01T11:10:33.504Z,22.47
2023-05-01T11:11:33.526Z,22.44
2023-05-01T11:12:33.509Z,21.52
2023-05-01T11:13:33.484Z,21.75
2023-05-01T11:14:33.499Z,22.11
2023-05-01T11:15:33.468Z,22.68
2023-05-01T11:16:33.490Z,22.48
2023-05-01T11:17:33.531Z,21.93
2023-05-01T11:18:33.455Z,22.14
2023-05-01T11:19:33.454Z,22.18
2023-05-01T11:20:33.454Z,22.04
2023-05-01T11:21:33.450Z,22.32
2023-05-01T11:22:33.456Z,22.63
2023-05-01T11:23:33.442Z,22.75
2023-05-01T11:24:33.421Z,21.70
2023-05-01T11:25:33.407Z,21.14
2023-05-01T11:26:33.418Z,21.75
2023-05-01T11:27:33.402Z,21.95
2023-05-01T11:28:33.465Z,22.25
2023-05-01T11:29:34.328Z,22.30
2023-05-01T11:30:33.385Z,22.50
2023-05-01T11:31:33.392Z,22.75
2023-05-01T11:32:33.406Z,23.10
2023-05-01T11:33:33.353Z,23.12
2023-05-01T11:34:33.352Z,23.10
2023-05-01T11:35:33.342Z,21.92
2023-05-01T11:36:33.328Z,20.72
2023-05-01T11:37:33.344Z,20.18
2023-05-01T11:38:33.322Z,20.93
2023-05-01T11:39:33.315Z,21.18
2023-05-01T11:40:33.304Z,22.25
2023-05-01T11:41:33.287Z,23.18
2023-05-01T11:42:33.382Z,23.99
2023-05-01T11:43:33.297Z,24.81
2023-05-01T11:44:33.268Z,24.69
2023-05-01T11:45:33.333Z,24.66
2023-05-01T11:46:33.332Z,25.13
2023-05-01T11:47:33.283Z,24.95
2023-05-01T11:48:33.263Z,25.36
2023-05-01T11:49:33.234Z,25.85
2023-05-01T11:50:33.244Z,26.22
2023-05-01T11:51:33.231Z,26.75
2023-05-01T11:52:33.238Z,26.99
2023-05-01T11:53:33.212Z,26.16
2023-05-01T11:54:33.205Z,26.03
2023-05-01T11:55:33.211Z,25.29
2023-05-01T11:56:33.183Z,25.01
2023-05-01T11:57:33.238Z,24.29
2023-05-01T11:58:33.169Z,22.04
2023-05-01T11:59:33.169Z,21.99
2023-05-01T12:00:33.172Z,21.55
2023-05-01T12:01:33.152Z,20.81
2023-05-01T12:02:33.194Z,20.96
2023-05-01T12:03:33.163Z,20.88
2023-05-01T12:04:33.174Z,21.18
2023-05-01T12:05:33.138Z,21.06
2023-05-01T12:06:33.235Z,21.61
2023-05-01T12:07:33.123Z,22.44
2023-05-01T12:08:33.113Z,23.27
2023-05-01T12:09:33.104Z,23.36
2023-05-01T12:10:35.350Z,22.88
2023-05-01T12:11:34.098Z,22.47
2023-05-01T12:12:33.084Z,21.55
2023-05-01T12:13:34.068Z,22.10
2023-05-01T12:14:33.077Z,22.41
2023-05-01T12:15:33.069Z,22.13
2023-05-01T12:16:33.080Z,21.62
2023-05-01T12:17:33.158Z,21.09
2023-05-01T12:18:33.047Z,21.30
2023-05-01T12:19:33.035Z,22.47
2023-05-01T12:20:33.077Z,22.48
2023-05-01T12:21:33.041Z,22.85
2023-05-01T12:22:33.092Z,23.18
2023-05-01T12:23:33.020Z,23.47
2023-05-01T12:24:33.007Z,23.61
2023-05-01T12:25:32.985Z,22.99
2023-05-01T12:26:32.987Z,22.13
2023-05-01T12:27:32.999Z,21.27
2023-05-01T12:28:32.972Z,22.26
2023-05-01T12:29:32.970Z,22.54
2023-05-01T12:30:32.964Z,22.75
2023-05-01T12:31:32.995Z,22.90
2023-05-01T12:32:33.154Z,23.21
2023-05-01T12:33:32.935Z,24.13
2023-05-01T12:34:32.930Z,24.93
2023-05-01T12:35:32.941Z,25.17
2023-05-01T12:36:32.915Z,25.36
2023-05-01T12:37:32.944Z,25.54
2023-05-01T12:38:32.892Z,26.03
2023-05-01T12:39:32.893Z,25.80
2023-05-01T12:40:32.889Z,24.35
2023-05-01T12:41:32.905Z,24.39
2023-05-01T12:42:32.888Z,23.74
2023-05-01T12:43:32.868Z,24.84
2023-05-01T12:44:32.861Z,25.83
2023-05-01T12:45:32.844Z,26.29
2023-05-01T12:46:32.886Z,26.93
2023-05-01T12:47:32.897Z,27.74
2023-05-01T12:48:32.836Z,27.37
2023-05-01T12:49:32.823Z,28.08
2023-05-01T12:50:32.836Z,27.48
2023-05-01T12:51:32.809Z,27.11
2023-05-01T12:52:32.810Z,26.70
2023-05-01T12:53:32.827Z,26.62
2023-05-01T12:54:32.789Z,25.93
2023-05-01T12:55:32.798Z,25.58
2023-05-01T12:56:32.791Z,25.18
2023-05-01T12:57:32.794Z,24.24
2023-05-01T12:58:32.794Z,21.67
2023-05-01T12:59:32.769Z,21.45
2023-05-01T13:00:32.759Z,21.29
2023-05-01T13:01:32.826Z,20.92
2023-05-01T13:02:32.782Z,20.90
2023-05-01T13:03:32.829Z,21.21